createdAt,value
2019-06-26T00:01:25.588Z,48.47
2019-06-26T00:03:51.941Z,48.30
2019-06-26T00:06:18.271Z,48.62
2019-06-26T00:08:44.651Z,48.39
2019-06-26T00:11:11.045Z,48.75
2019-06-26T00:13:37.371Z,48.41
2019-06-26T00:16:03.714Z,48.49
2019-06-26T00:18:30.057Z,48.37
2019-06-26T00:20:56.382Z,48.52
2019-06-26T00:23:22.764Z,48.49
2019-06-26T00:25:49.088Z,48.53
2019-06-26T00:28:15.451Z,48.68
2019-06-26T00:30:41.834Z,48.67
2019-06-26T00:33:08.201Z,48.60
2019-06-26T00:35:34.507Z,48.69
2019-06-26T00:38:00.818Z,48.72
2019-06-26T00:40:27.150Z,48.66
2019-06-26T00:42:53.582Z,48.58
2019-06-26T00:45:19.875Z,48.72
2019-06-26T00:47:46.238Z,48.48
2019-06-26T00:50:12.564Z,48.71
2019-06-26T00:52:38.906Z,48.90
2019-06-26T00:55:05.317Z,48.75
2019-06-26T00:57:31.651Z,48.81
2019-06-26T00:59:58.060Z,48.71
2019-06-26T01:02:24.390Z,48.70
2019-06-26T01:04:50.725Z,48.81
2019-06-26T01:07:17.084Z,48.68
2019-06-26T01:09:43.416Z,48.91
2019-06-26T01:12:09.760Z,48.74
2019-06-26T01:14:36.100Z,48.63
2019-06-26T01:17:02.583Z,48.93
2019-06-26T01:19:28.936Z,48.80
2019-06-26T01:21:55.289Z,48.93
2019-06-26T01:24:21.692Z,48.89
2019-06-26T01:29:14.371Z,48.98
2019-06-26T01:31:40.704Z,49.19
2019-06-26T01:34:07.061Z,49.04
2019-06-26T01:36:33.399Z,48.93
2019-06-26T01:38:59.721Z,48.91
2019-06-26T01:41:26.084Z,48.92
2019-06-26T01:43:52.465Z,49.10
2019-06-26T01:46:18.850Z,49.19
2019-06-26T01:48:45.205Z,49.10
2019-06-26T01:51:11.550Z,49.08
2019-06-26T01:53:37.961Z,48.97
2019-06-26T01:56:04.281Z,49.17
2019-06-26T01:58:30.626Z,49.00
2019-06-26T02:03:23.345Z,48.97
2019-06-26T02:05:49.665Z,49.04
2019-06-26T02:08:16.013Z,49.29
2019-06-26T02:10:42.385Z,49.22
2019-06-26T02:13:08.795Z,49.07
2019-06-26T02:15:35.162Z,49.29
2019-06-26T02:18:01.463Z,49.07
2019-06-26T02:20:27.910Z,49.30
2019-06-26T02:22:54.224Z,49.11
2019-06-26T02:25:20.554Z,49.32
2019-06-26T02:27:46.887Z,49.19
2019-06-26T02:30:13.260Z,49.41
2019-06-26T02:32:39.755Z,49.26
2019-06-26T02:37:32.429Z,49.29
2019-06-26T02:39:58.782Z,49.29
2019-06-26T02:42:25.120Z,49.26
2019-06-26T02:44:54.144Z,49.38
2019-06-26T02:47:20.490Z,49.25
2019-06-26T02:49:44.184Z,49.29
2019-06-26T02:52:10.521Z,49.58
2019-06-26T02:54:36.852Z,49.29
2019-06-26T02:57:03.240Z,49.43
2019-06-26T02:59:29.562Z,49.33
2019-06-26T03:01:55.899Z,49.52
2019-06-26T03:04:22.274Z,49.45
2019-06-26T03:06:48.606Z,49.43
2019-06-26T03:11:41.346Z,49.42
2019-06-26T03:14:07.689Z,49.48
2019-06-26T03:16:34.028Z,49.59
2019-06-26T03:19:00.378Z,49.53
2019-06-26T03:21:26.736Z,49.49
2019-06-26T03:23:53.154Z,49.15
2019-06-26T03:26:19.452Z,49.01
2019-06-26T03:28:45.808Z,48.89
2019-06-26T03:31:12.143Z,48.79
2019-06-26T03:33:38.500Z,48.65
2019-06-26T03:36:04.859Z,48.57
2019-06-26T03:38:31.208Z,48.52
2019-06-26T03:40:57.629Z,48.30
2019-06-26T03:45:50.312Z,48.51
2019-06-26T03:48:16.659Z,48.26
2019-06-26T03:50:43.145Z,48.18
2019-06-26T03:53:09.610Z,48.12
2019-06-26T03:55:35.946Z,47.98
2019-06-26T03:58:02.325Z,48.08
2019-06-26T04:00:28.625Z,48.07
2019-06-26T04:02:55.011Z,48.10
2019-06-26T04:05:21.406Z,47.96
2019-06-26T04:07:47.750Z,48.04
2019-06-26T04:10:14.078Z,48.05
2019-06-26T04:12:40.432Z,47.96
2019-06-26T04:15:06.761Z,47.99
2019-06-26T04:17:33.090Z,47.84
2019-06-26T04:19:59.424Z,47.84
2019-06-26T04:22:25.774Z,47.80
2019-06-26T04:24:52.115Z,47.88
2019-06-26T04:27:18.443Z,47.83
2019-06-26T04:29:44.836Z,47.89
2019-06-26T04:32:11.134Z,47.87
2019-06-26T04:34:37.522Z,47.94
2019-06-26T04:37:03.816Z,47.81
2019-06-26T04:39:30.194Z,47.84
2019-06-26T04:41:56.542Z,47.91
2019-06-26T04:44:22.873Z,47.86
2019-06-26T04:46:49.266Z,47.91
2019-06-26T04:49:15.636Z,47.71
2019-06-26T04:54:08.327Z,47.61
2019-06-26T04:56:34.688Z,47.68
2019-06-26T04:59:01.070Z,47.69
2019-06-26T05:01:27.425Z,47.61
2019-06-26T05:03:53.758Z,47.67
2019-06-26T05:06:20.155Z,47.70
2019-06-26T05:08:46.485Z,47.75
2019-06-26T05:11:13.090Z,47.66
2019-06-26T05:13:39.190Z,47.68
2019-06-26T05:16:14.981Z,47.85
2019-06-26T05:18:31.886Z,47.68
2019-06-26T05:20:58.229Z,47.71
2019-06-26T05:23:24.591Z,47.77
2019-06-26T05:28:17.402Z,47.71
2019-06-26T05:30:43.899Z,47.88
2019-06-26T05:33:10.120Z,47.97
2019-06-26T05:35:36.563Z,48.02
2019-06-26T05:38:02.960Z,47.51
2019-06-26T05:40:29.283Z,47.88
2019-06-26T05:42:55.630Z,47.91
2019-06-26T05:45:22.035Z,47.95
2019-06-26T05:47:48.386Z,48.51
2019-06-26T05:50:14.786Z,48.02
2019-06-26T05:52:42.782Z,48.08
2019-06-26T05:55:07.548Z,48.26
2019-06-26T05:57:33.849Z,48.39
2019-06-26T06:02:26.628Z,48.12
2019-06-26T06:04:52.941Z,47.98
2019-06-26T06:07:19.330Z,48.03
2019-06-26T06:09:45.743Z,48.18
2019-06-26T06:12:12.103Z,48.37
2019-06-26T06:14:38.486Z,48.58
2019-06-26T06:17:04.862Z,48.66
2019-06-26T06:19:31.292Z,48.62
2019-06-26T06:21:57.686Z,48.41
2019-06-26T06:24:24.050Z,48.66
2019-06-26T06:26:50.453Z,48.66
2019-06-26T06:29:16.865Z,48.71
2019-06-26T06:31:43.186Z,48.84
2019-06-26T06:36:35.958Z,48.73
2019-06-26T06:39:02.417Z,48.78
2019-06-26T06:41:28.756Z,49.07
2019-06-26T06:43:55.134Z,49.31
2019-06-26T06:46:21.483Z,49.01
2019-06-26T06:48:47.877Z,49.13
2019-06-26T06:51:14.278Z,48.95
2019-06-26T06:53:40.715Z,48.84
2019-06-26T06:56:07.316Z,48.88
2019-06-26T06:58:33.671Z,49.10
2019-06-26T07:01:00.074Z,48.92
2019-06-26T07:03:26.502Z,48.89
2019-06-26T07:05:52.911Z,49.01
2019-06-26T07:10:45.674Z,49.01
2019-06-26T07:13:12.063Z,49.03
2019-06-26T07:15:38.492Z,48.82
2019-06-26T07:18:04.753Z,49.15
2019-06-26T07:20:31.178Z,48.81
2019-06-26T07:22:57.540Z,48.77
2019-06-26T07:25:23.924Z,48.54
2019-06-26T07:27:50.322Z,48.86
2019-06-26T07:30:16.671Z,48.91
2019-06-26T07:32:43.094Z,48.72
2019-06-26T07:35:09.528Z,48.43
2019-06-26T07:37:35.956Z,48.55
2019-06-26T07:40:02.599Z,48.84
2019-06-26T07:42:28.689Z,49.02
2019-06-26T07:44:55.222Z,49.00
2019-06-26T07:47:24.989Z,49.99
2019-06-26T07:49:48.046Z,49.32
2019-06-26T07:52:14.574Z,48.82
2019-06-26T07:54:40.905Z,48.65
2019-06-26T07:57:07.313Z,48.74
2019-06-26T07:59:33.775Z,48.68
2019-06-26T08:02:00.266Z,48.42
2019-06-26T08:04:26.631Z,48.53
2019-06-26T08:06:53.159Z,48.42
2019-06-26T08:09:19.501Z,48.62
2019-06-26T08:11:45.883Z,48.62
2019-06-26T08:14:12.273Z,48.45
2019-06-26T08:16:38.606Z,48.63
2019-06-26T08:19:05.013Z,48.38
2019-06-26T08:21:31.500Z,48.26
2019-06-26T08:23:57.869Z,48.74
2019-06-26T08:26:24.206Z,48.46
2019-06-26T08:28:50.662Z,48.37
2019-06-26T08:31:17.174Z,48.26
2019-06-26T08:33:43.731Z,48.15
2019-06-26T08:36:10.136Z,48.30
2019-06-26T08:38:36.490Z,48.09
2019-06-26T08:41:02.878Z,48.27
2019-06-26T08:43:31.352Z,48.23
2019-06-26T08:45:55.765Z,48.36
2019-06-26T08:48:38.434Z,48.19
2019-06-26T08:50:48.526Z,47.99
2019-06-26T08:53:14.962Z,47.93
2019-06-26T08:55:41.379Z,47.86
2019-06-26T08:58:07.750Z,47.81
2019-06-26T09:00:34.132Z,47.74
2019-06-26T09:03:00.530Z,47.99
2019-06-26T09:05:26.876Z,47.96
2019-06-26T09:07:53.404Z,47.94
2019-06-26T09:10:19.680Z,47.64
2019-06-26T09:12:46.099Z,47.67
2019-06-26T09:15:12.410Z,47.96
2019-06-26T09:17:39.933Z,47.87
2019-06-26T09:20:06.198Z,47.68
2019-06-26T09:22:32.659Z,47.63
2019-06-26T09:24:59.066Z,48.15
2019-06-26T09:27:25.390Z,47.69
2019-06-26T09:29:51.790Z,47.59
2019-06-26T09:32:18.156Z,47.65
2019-06-26T09:34:44.495Z,47.46
2019-06-26T09:37:10.883Z,47.17
2019-06-26T09:39:37.291Z,47.13
2019-06-26T09:42:03.669Z,47.12
2019-06-26T09:44:30.021Z,47.10
2019-06-26T09:46:56.414Z,46.91
2019-06-26T09:49:22.741Z,46.78
2019-06-26T09:51:49.183Z,46.81
2019-06-26T09:54:15.514Z,46.75
2019-06-26T09:56:41.874Z,46.76
2019-06-26T09:59:08.601Z,46.89
2019-06-26T10:01:34.972Z,47.07
2019-06-26T10:04:01.336Z,47.00
2019-06-26T10:06:27.739Z,46.87
2019-06-26T10:08:54.751Z,46.94
2019-06-26T10:11:20.431Z,46.89
2019-06-26T10:13:46.833Z,46.98
2019-06-26T10:16:13.234Z,46.81
2019-06-26T10:18:41.851Z,47.40
2019-06-26T10:23:32.567Z,47.16
2019-06-26T10:25:58.999Z,46.78
2019-06-26T10:28:25.360Z,47.73
2019-06-26T10:30:51.794Z,47.47
2019-06-26T10:33:18.154Z,47.31
2019-06-26T10:35:44.592Z,47.49
2019-06-26T10:38:10.933Z,47.06
2019-06-26T10:40:37.423Z,47.03
2019-06-26T10:43:03.795Z,46.82
2019-06-26T10:45:30.178Z,46.99
2019-06-26T10:47:56.599Z,47.20
2019-06-26T10:50:22.893Z,47.49
2019-06-26T10:52:49.271Z,48.29
2019-06-26T10:57:42.017Z,48.42
2019-06-26T11:00:08.375Z,48.00
2019-06-26T11:02:34.809Z,47.87
2019-06-26T11:05:01.205Z,48.42
2019-06-26T11:07:27.638Z,49.38
2019-06-26T11:09:54.002Z,48.71
2019-06-26T11:12:20.337Z,48.35
2019-06-26T11:14:46.721Z,48.62
2019-06-26T11:17:13.076Z,48.33
2019-06-26T11:19:43.634Z,48.14
2019-06-26T11:22:05.860Z,48.06
2019-06-26T11:24:32.216Z,48.39
2019-06-26T11:26:58.608Z,48.10
2019-06-26T11:29:24.976Z,48.09
2019-06-26T11:31:51.393Z,47.96
2019-06-26T11:34:17.809Z,47.87
2019-06-26T11:36:44.197Z,47.78
2019-06-26T11:39:10.557Z,47.75
2019-06-26T11:41:36.927Z,47.77
2019-06-26T11:44:03.332Z,47.97
2019-06-26T11:46:29.673Z,47.90
2019-06-26T11:48:56.055Z,47.65
2019-06-26T11:51:22.416Z,47.65
2019-06-26T11:53:48.803Z,47.65
2019-06-26T11:56:15.232Z,47.78
2019-06-26T11:58:41.606Z,47.63
2019-06-26T12:01:07.994Z,47.55
2019-06-26T12:03:34.362Z,47.72
2019-06-26T12:06:15.235Z,47.86
2019-06-26T12:08:27.160Z,47.71
2019-06-26T12:10:53.563Z,47.57
2019-06-26T12:15:46.430Z,47.74
2019-06-26T12:18:12.762Z,47.80
2019-06-26T12:20:39.148Z,47.78
2019-06-26T12:23:05.519Z,47.49
2019-06-26T12:25:31.896Z,47.78
2019-06-26T12:27:58.238Z,47.68
2019-06-26T12:30:24.584Z,47.25
2019-06-26T12:33:02.380Z,47.31
2019-06-26T12:35:17.301Z,47.21
2019-06-26T12:40:25.887Z,47.60
2019-06-26T12:42:55.477Z,46.88
2019-06-26T12:45:18.626Z,46.86
2019-06-26T12:47:44.913Z,46.85
2019-06-26T12:50:11.297Z,47.17
2019-06-26T12:52:37.677Z,46.99
2019-06-26T12:55:04.056Z,47.07
2019-06-26T12:57:30.481Z,47.18
2019-06-26T12:59:58.007Z,46.81
2019-06-26T13:02:23.101Z,46.98
2019-06-26T13:04:49.550Z,47.04
2019-06-26T13:07:15.887Z,46.99
2019-06-26T13:09:42.243Z,46.72
2019-06-26T13:12:08.597Z,47.12
2019-06-26T13:14:34.973Z,47.10
2019-06-26T13:17:01.323Z,46.66
2019-06-26T13:19:27.674Z,46.91
2019-06-26T13:21:54.072Z,46.56
2019-06-26T13:24:20.440Z,47.10
2019-06-26T13:26:46.773Z,46.87
2019-06-26T13:29:13.137Z,46.63
2019-06-26T13:31:39.503Z,46.78
2019-06-26T13:34:05.912Z,47.17
2019-06-26T13:36:32.245Z,46.84
2019-06-26T13:38:58.579Z,46.81
2019-06-26T13:41:24.917Z,46.84
2019-06-26T13:43:51.323Z,46.62
2019-06-26T13:46:17.652Z,46.60
2019-06-26T13:48:43.989Z,46.83
2019-06-26T13:51:12.325Z,46.27
2019-06-26T13:53:36.724Z,46.59
2019-06-26T13:56:03.079Z,46.81
2019-06-26T13:58:29.432Z,46.63
2019-06-26T14:00:55.803Z,46.68
2019-06-26T14:03:22.234Z,46.56
2019-06-26T14:05:48.543Z,46.88
2019-06-26T14:08:14.940Z,46.57
2019-06-26T14:10:41.263Z,46.32
2019-06-26T14:13:07.601Z,46.57
2019-06-26T14:15:33.929Z,46.62
2019-06-26T14:18:00.296Z,46.90
2019-06-26T14:20:26.658Z,47.13
2019-06-26T14:22:53.154Z,47.33
2019-06-26T14:25:19.493Z,47.55
2019-06-26T14:30:12.180Z,47.54
2019-06-26T14:46:19.495Z,47.66
2019-06-26T14:48:45.843Z,47.71
2019-06-26T14:51:12.262Z,47.42
2019-06-26T14:53:38.593Z,47.53
2019-06-26T14:56:04.919Z,47.88
2019-06-26T14:58:31.308Z,47.59
2019-06-26T15:00:57.697Z,47.85
2019-06-26T15:03:24.013Z,47.57
2019-06-26T15:05:50.355Z,47.59
2019-06-26T15:08:16.702Z,47.64
2019-06-26T15:10:43.116Z,47.25
2019-06-26T15:13:09.445Z,47.73
2019-06-26T15:15:35.859Z,47.32
2019-06-26T15:18:02.161Z,47.67
2019-06-26T15:20:28.537Z,47.67
2019-06-26T15:22:57.878Z,47.51
2019-06-26T15:25:21.218Z,47.75
2019-06-26T15:27:47.567Z,47.65
2019-06-26T15:30:13.903Z,48.26
2019-06-26T15:32:40.315Z,47.59
2019-06-26T15:35:06.632Z,47.52
2019-06-26T15:37:33.065Z,47.55
2019-06-26T15:39:59.368Z,47.32
2019-06-26T15:42:25.715Z,47.59
2019-06-26T15:44:52.071Z,47.75
2019-06-26T15:47:18.431Z,47.52
2019-06-26T15:49:44.828Z,47.46
2019-06-26T15:52:15.414Z,48.04
2019-06-26T15:54:37.744Z,47.65
2019-06-26T15:57:04.312Z,47.83
2019-06-26T15:59:31.265Z,47.81
2019-06-26T16:01:57.076Z,47.59
2019-06-26T16:04:23.442Z,47.52
2019-06-26T16:06:49.831Z,47.48
2019-06-26T16:09:16.163Z,47.52
2019-06-26T16:11:42.543Z,47.23
2019-06-26T16:14:08.890Z,47.15
2019-06-26T16:16:35.296Z,47.25
2019-06-26T16:19:01.646Z,47.49
2019-06-26T16:21:28.055Z,47.54
2019-06-26T16:23:54.426Z,47.19
2019-06-26T16:26:20.776Z,47.36
2019-06-26T16:28:47.164Z,47.38
2019-06-26T16:31:13.557Z,47.36
2019-06-26T16:33:39.886Z,47.15
2019-06-26T16:36:06.247Z,47.03
2019-06-26T16:40:58.947Z,46.81
2019-06-26T16:43:25.322Z,46.90
2019-06-26T16:45:51.722Z,46.88
2019-06-26T16:48:18.100Z,46.59
2019-06-26T16:50:44.422Z,46.76
2019-06-26T16:53:10.785Z,46.47
2019-06-26T16:55:37.118Z,46.76
2019-06-26T16:58:03.505Z,46.74
2019-06-26T17:00:29.790Z,46.79
2019-06-26T17:02:56.149Z,46.64
2019-06-26T17:05:22.595Z,46.59
2019-06-26T17:07:48.955Z,46.42
2019-06-26T17:10:15.331Z,46.44
2019-06-26T17:15:08.010Z,46.83
2019-06-26T17:17:34.387Z,46.52
2019-06-26T17:20:00.718Z,46.49
2019-06-26T17:22:27.114Z,46.22
2019-06-26T17:24:53.463Z,46.23
2019-06-26T17:27:19.912Z,46.45
2019-06-26T17:29:46.273Z,46.58
2019-06-26T17:32:12.660Z,46.20
2019-06-26T17:34:39.021Z,46.17
2019-06-26T17:37:05.410Z,46.55
2019-06-26T17:39:31.782Z,46.10
2019-06-26T17:41:58.124Z,45.94
2019-06-26T17:44:24.504Z,46.02
2019-06-26T17:49:17.205Z,45.98
2019-06-26T17:51:43.569Z,45.94
2019-06-26T17:54:09.856Z,45.91
2019-06-26T17:56:36.258Z,45.98
2019-06-26T17:59:02.562Z,45.91
2019-06-26T18:01:28.928Z,46.20
2019-06-26T18:03:55.252Z,46.11
2019-06-26T18:06:21.661Z,45.91
2019-06-26T18:08:48.117Z,46.17
2019-06-26T18:11:14.453Z,46.11
2019-06-26T18:13:40.800Z,46.44
2019-06-26T18:16:07.237Z,46.17
2019-06-26T18:18:33.598Z,46.34
2019-06-26T18:23:37.228Z,46.28
2019-06-26T18:25:54.487Z,46.56
2019-06-26T18:28:20.348Z,46.71
2019-06-26T18:30:45.447Z,46.93
2019-06-26T18:33:11.783Z,47.04
2019-06-26T18:35:38.277Z,47.31
2019-06-26T18:38:04.634Z,47.03
2019-06-26T18:40:31.950Z,47.02
2019-06-26T18:42:57.314Z,46.93
2019-06-26T18:45:23.707Z,46.97
2019-06-26T18:47:50.043Z,47.12
2019-06-26T18:50:16.357Z,47.04
2019-06-26T18:52:42.731Z,46.99
2019-06-26T18:55:09.102Z,47.13
2019-06-26T18:57:35.421Z,47.28
2019-06-26T19:00:01.884Z,47.00
2019-06-26T19:02:28.215Z,47.06
2019-06-26T19:04:54.541Z,46.95
2019-06-26T19:07:20.937Z,47.09
2019-06-26T19:09:47.256Z,47.14
2019-06-26T19:12:13.673Z,47.25
2019-06-26T19:14:40.044Z,46.99
2019-06-26T19:19:32.756Z,46.88
2019-06-26T19:21:59.116Z,46.95
2019-06-26T19:24:25.563Z,47.00
2019-06-26T19:26:51.940Z,46.85
2019-06-26T19:29:18.231Z,46.95
2019-06-26T19:31:44.601Z,46.93
2019-06-26T19:34:10.944Z,46.97
2019-06-26T19:36:49.572Z,47.23
2019-06-26T19:39:03.668Z,47.01
2019-06-26T19:41:29.973Z,47.20
2019-06-26T19:43:56.386Z,47.05
2019-06-26T19:46:22.711Z,47.04
2019-06-26T19:48:49.108Z,47.09
2019-06-26T19:51:15.439Z,47.23
2019-06-26T19:53:41.778Z,47.00
2019-06-26T19:56:08.124Z,47.05
2019-06-26T19:58:34.570Z,47.05
2019-06-26T20:01:00.923Z,47.16
2019-06-26T20:06:35.072Z,47.46
2019-06-26T20:23:01.398Z,47.34
2019-06-26T20:25:37.533Z,47.25
2019-06-26T20:33:45.819Z,47.38
2019-06-26T20:36:19.255Z,47.40
2019-06-26T20:39:01.223Z,47.52
2019-06-26T20:44:18.154Z,47.68
2019-06-26T20:49:49.079Z,47.46
2019-06-26T20:52:16.235Z,47.59
2019-06-26T20:54:59.797Z,47.50
2019-06-26T20:57:14.409Z,47.40
2019-06-26T20:59:43.077Z,47.65
2019-06-26T21:02:22.242Z,47.43
2019-06-26T21:04:56.837Z,47.62
2019-06-26T21:10:19.539Z,47.62
2019-06-26T21:15:33.810Z,47.59
2019-06-26T21:20:52.788Z,47.62
2019-06-26T21:23:23.966Z,47.59
2019-06-26T21:26:00.966Z,47.82
2019-06-26T21:28:35.334Z,47.65
2019-06-26T21:32:03.088Z,47.64
2019-06-26T21:36:25.215Z,47.72
2019-06-26T21:38:51.957Z,47.69
2019-06-26T21:43:59.675Z,47.91
2019-06-26T21:46:39.342Z,47.73
2019-06-26T21:49:17.136Z,47.78
2019-06-26T21:51:43.707Z,47.85
2019-06-26T21:54:10.257Z,47.80
2019-06-26T21:56:36.814Z,47.82
2019-06-26T21:59:03.134Z,47.81
2019-06-26T22:01:29.465Z,47.75
2019-06-26T22:03:55.867Z,47.81
2019-06-26T22:06:22.278Z,47.77
2019-06-26T22:08:48.589Z,47.81
2019-06-26T22:11:14.998Z,47.87
2019-06-26T22:13:41.307Z,47.75
2019-06-26T22:16:07.711Z,47.71
2019-06-26T22:18:34.136Z,47.99
2019-06-26T22:21:00.482Z,47.82
2019-06-26T22:23:26.820Z,47.79
2019-06-26T22:25:53.189Z,47.88
2019-06-26T22:28:19.538Z,47.84
2019-06-26T22:30:45.992Z,47.87
2019-06-26T22:33:12.331Z,47.91
2019-06-26T22:35:38.730Z,47.99
2019-06-26T22:38:05.123Z,47.91
2019-06-26T22:40:31.410Z,47.90
2019-06-26T22:42:57.806Z,47.94
2019-06-26T22:47:50.539Z,47.98
2019-06-26T22:50:16.918Z,48.04
2019-06-26T22:52:43.309Z,47.97
2019-06-26T22:55:09.604Z,48.13
2019-06-26T22:57:35.952Z,48.03
2019-06-26T23:00:02.320Z,47.94
2019-06-26T23:02:28.733Z,48.04
2019-06-26T23:04:55.029Z,48.35
2019-06-26T23:09:47.726Z,48.05
2019-06-26T23:12:14.098Z,48.08
2019-06-26T23:14:40.511Z,47.99
2019-06-26T23:17:06.819Z,48.11
2019-06-26T23:21:59.611Z,48.23
2019-06-26T23:24:25.959Z,48.19
2019-06-26T23:26:52.323Z,48.10
2019-06-26T23:29:18.701Z,48.10
2019-06-26T23:31:45.047Z,48.22
2019-06-26T23:34:11.429Z,48.12
2019-06-26T23:36:37.779Z,48.40
2019-06-26T23:39:04.135Z,48.10
2019-06-26T23:41:30.474Z,48.20
2019-06-26T23:43:56.862Z,48.08
2019-06-26T23:46:23.277Z,48.32
2019-06-26T23:48:49.567Z,48.13
2019-06-26T23:51:15.900Z,48.18
2019-06-26T23:53:42.291Z,48.45
2019-06-26T23:56:08.655Z,48.21
2019-06-26T23:58:34.977Z,48.15
